Time;durP1;ratioP1;P1;durP2;ratioP2;P2;SDS_P1;SDS_P2;PMS_P1;PMS_P2;Temp;Humidity;BMP_temperature;BMP_pressure;BME280_temperature;BME280_humidity;BME280_pressure;Samples;Min_cycle;Max_cycle;Signal;HPM_P1;HPM_P2
2021/06/02 00:01:46;;;;;;;0.73;0.73;;;16.70;88.40;;;;;;4383227;32;20059;-72
2021/06/02 00:04:14;;;;;;;0.20;0.20;;;16.70;88.80;;;;;;4382770;32;20066;-72
2021/06/02 00:06:41;;;;;;;0.20;0.20;;;16.70;88.90;;;;;;4383019;32;20050;-72
2021/06/02 00:09:07;;;;;;;0.52;0.40;;;16.70;89.10;;;;;;4383546;32;20075;-72
2021/06/02 00:11:35;;;;;;;0.98;0.65;;;16.60;89.60;;;;;;4382957;32;20123;-72
2021/06/02 00:14:02;;;;;;;0.20;0.20;;;16.60;90.00;;;;;;4384187;32;20417;-72
2021/06/02 00:16:27;;;;;;;0.30;0.30;;;16.50;90.10;;;;;;4382738;32;20465;-72
2021/06/02 00:18:53;;;;;;;0.30;0.30;;;16.40;90.30;;;;;;4383664;32;20075;-72
2021/06/02 00:21:19;;;;;;;0.45;0.45;;;16.50;90.60;;;;;;4382951;32;20122;-72
2021/06/02 00:23:44;;;;;;;0.52;0.45;;;16.50;90.60;;;;;;4383425;32;20062;-72
2021/06/02 00:26:12;;;;;;;0.17;0.17;;;16.40;90.90;;;;;;4384552;32;20125;-72
2021/06/02 00:28:39;;;;;;;0.68;0.68;;;16.50;91.10;;;;;;4387006;32;20066;-72
2021/06/02 00:31:06;;;;;;;0.80;0.40;;;16.40;91.30;;;;;;4384964;32;20449;-72
2021/06/02 00:33:32;;;;;;;0.60;0.32;;;16.30;92.00;;;;;;4385212;32;20117;-72
2021/06/02 00:36:01;;;;;;;0.20;0.20;;;16.20;92.00;;;;;;4386004;32;20071;-72
2021/06/02 00:38:27;;;;;;;0.20;0.20;;;16.20;92.40;;;;;;4385417;32;20055;-72
2021/06/02 00:40:52;;;;;;;0.15;0.15;;;16.10;92.90;;;;;;4386544;32;20051;-72
2021/06/02 00:43:19;;;;;;;0.20;0.20;;;16.00;93.30;;;;;;4385939;32;20429;-72
2021/06/02 00:45:46;;;;;;;0.25;0.25;;;15.90;93.60;;;;;;4384659;32;20062;-72
2021/06/02 00:48:15;;;;;;;0.32;0.32;;;16.00;93.60;;;;;;4385675;32;20058;-72
2021/06/02 00:50:45;;;;;;;0.10;0.10;;;15.90;93.60;;;;;;4385027;32;20366;-72
2021/06/02 00:53:12;;;;;;;0.30;0.30;;;15.90;93.80;;;;;;4385623;32;20484;-72
2021/06/02 00:55:37;;;;;;;0.35;0.35;;;15.80;93.90;;;;;;4386039;32;20079;-72
2021/06/02 00:58:07;;;;;;;0.20;0.20;;;15.80;94.00;;;;;;4386702;32;20058;-72
2021/06/02 01:00:32;;;;;;;0.40;0.40;;;15.70;94.30;;;;;;4385608;32;20075;-72
2021/06/02 01:02:59;;;;;;;0.30;0.30;;;15.70;94.50;;;;;;4386402;32;20074;-72
2021/06/02 01:05:25;;;;;;;0.22;0.22;;;15.60;94.50;;;;;;4385341;32;20127;-72
2021/06/02 01:07:52;;;;;;;0.75;0.30;;;15.50;95.00;;;;;;4385531;32;20492;-72
2021/06/02 01:10:19;;;;;;;0.20;0.20;;;15.40;95.00;;;;;;4385760;32;20066;-72
2021/06/02 01:12:48;;;;;;;0.40;0.40;;;15.40;94.80;;;;;;4384502;32;20070;-72
2021/06/02 01:15:15;;;;;;;0.20;0.20;;;15.40;95.30;;;;;;4384311;32;20062;-72
2021/06/02 01:17:41;;;;;;;0.20;0.20;;;15.50;95.10;;;;;;4384970;32;20425;-72
2021/06/02 01:20:08;;;;;;;0.20;0.20;;;15.40;95.40;;;;;;4384886;32;20071;-72
2021/06/02 01:22:35;;;;;;;0.40;0.40;;;15.40;95.60;;;;;;4386173;32;20066;-72
2021/06/02 01:25:06;;;;;;;0.55;0.50;;;15.40;96.00;;;;;;4385289;32;20055;-72
2021/06/02 01:27:32;;;;;;;0.47;0.47;;;15.30;96.40;;;;;;4385003;32;20074;-72
2021/06/02 01:29:57;;;;;;;0.30;0.30;;;15.30;96.70;;;;;;4384204;32;20074;-72
2021/06/02 01:33:03;;;;;;;0.20;0.20;;;15.30;97.10;;;;;;4385352;32;20082;-72
2021/06/02 01:35:31;;;;;;;0.20;0.20;;;15.30;97.50;;;;;;4366530;32;20118;-72
2021/06/02 01:38:15;;;;;;;9.13;0.47;;;15.30;98.00;;;;;;4385406;32;20458;-72
2021/06/02 01:41:08;;;;;;;0.43;0.30;;;15.30;98.40;;;;;;4384883;32;20082;-72
2021/06/02 01:44:13;;;;;;;0.20;0.20;;;15.30;98.70;;;;;;4384865;32;20123;-72
2021/06/02 01:47:01;;;;;;;0.20;0.20;;;15.30;98.80;;;;;;4365126;32;20421;-72
2021/06/02 01:49:37;;;;;;;0.30;0.30;;;15.20;99.60;;;;;;4385153;32;20066;-72
2021/06/02 01:52:42;;;;;;;0.20;0.20;;;15.10;99.90;;;;;;4385703;32;20067;-72
2021/06/02 01:55:48;;;;;;;0.30;0.30;;;15.20;99.90;;;;;;4376219;32;20066;-72
2021/06/02 01:58:37;;;;;;;0.20;0.20;;;15.20;99.90;;;;;;4365403;32;20499;-72
2021/06/02 02:01:25;;;;;;;0.10;0.10;;;15.20;99.90;;;;;;4373350;32;20080;-72
2021/06/02 02:04:12;;;;;;;0.28;0.28;;;15.10;99.90;;;;;;4384977;32;20553;-72
2021/06/02 02:07:18;;;;;;;0.25;0.25;;;15.10;99.90;;;;;;4386207;32;20062;-72
2021/06/02 02:10:23;;;;;;;1.87;0.73;;;15.00;99.90;;;;;;4365500;32;20129;-72
2021/06/02 02:12:59;;;;;;;0.30;0.30;;;15.10;99.90;;;;;;4364488;32;20414;-72
2021/06/02 02:15:36;;;;;;;0.25;0.25;;;15.00;99.90;;;;;;4384510;32;20071;-72
2021/06/02 02:18:25;;;;;;;0.20;0.20;;;14.90;99.90;;;;;;4385381;32;20470;-72
2021/06/02 02:21:19;;;;;;;1.45;0.85;;;14.90;99.90;;;;;;4374019;32;20404;-72
2021/06/02 02:24:01;;;;;;;0.30;0.30;;;14.70;99.90;;;;;;4374643;32;20152;-72
2021/06/02 02:26:36;;;;;;;0.13;0.13;;;14.80;99.90;;;;;;4383816;32;20462;-72
2021/06/02 02:29:23;;;;;;;0.90;0.60;;;14.80;99.90;;;;;;4384215;32;20071;-72
2021/06/02 02:31:59;;;;;;;0.70;0.28;;;14.80;99.90;;;;;;4373706;32;20404;-72
2021/06/02 02:34:57;;;;;;;1.77;0.70;;;14.90;99.90;;;;;;4384791;32;20078;-72
2021/06/02 02:37:47;;;;;;;0.20;0.20;;;14.70;99.90;;;;;;4374361;32;20132;-72
2021/06/02 02:40:32;;;;;;;0.30;0.30;;;14.70;99.90;;;;;;4373752;32;20515;-72
2021/06/02 02:43:06;;;;;;;2.12;0.60;;;14.60;99.90;;;;;;4384795;32;20063;-72
2021/06/02 02:45:40;;;;;;;0.30;0.30;;;14.60;99.90;;;;;;4383750;32;20123;-72
2021/06/02 02:48:15;;;;;;;1.00;0.90;;;14.60;99.90;;;;;;4383912;32;20492;-72
2021/06/02 02:51:01;;;;;;;0.90;0.73;;;14.60;99.90;;;;;;4383917;32;20063;-72
2021/06/02 02:53:42;;;;;;;0.20;0.20;;;14.60;99.90;;;;;;4384834;32;20086;-72
2021/06/02 02:56:16;;;;;;;0.20;0.20;;;14.70;99.90;;;;;;4383523;32;20461;-72
2021/06/02 02:58:53;;;;;;;0.68;0.68;;;14.60;99.90;;;;;;4383550;32;20172;-72
2021/06/02 03:01:24;;;;;;;1.00;0.73;;;14.60;99.90;;;;;;4384203;32;20187;-72
2021/06/02 03:03:59;;;;;;;0.80;0.40;;;14.50;99.90;;;;;;4383640;32;20523;-72
2021/06/02 03:06:35;;;;;;;0.40;0.40;;;14.50;99.90;;;;;;4383868;32;20271;-72
2021/06/02 03:09:28;;;;;;;0.95;0.75;;;14.30;99.90;;;;;;4384317;32;20063;-72
2021/06/02 03:11:57;;;;;;;0.35;0.35;;;14.40;99.90;;;;;;4372086;32;20074;-72
2021/06/02 03:14:35;;;;;;;0.30;0.30;;;14.40;99.90;;;;;;4369192;32;20421;-72
2021/06/02 03:17:09;;;;;;;0.20;0.20;;;14.50;99.90;;;;;;4368896;32;20067;-72
2021/06/02 03:20:00;;;;;;;1.40;0.98;;;14.50;99.90;;;;;;4368478;32;20059;-72
2021/06/02 03:22:37;;;;;;;0.40;0.40;;;14.50;99.90;;;;;;4358646;32;20087;-72
2021/06/02 03:25:15;;;;;;;0.32;0.32;;;14.40;99.90;;;;;;4368537;32;20063;-72
2021/06/02 03:28:08;;;;;;;1.27;0.73;;;14.30;99.90;;;;;;4368416;32;20462;-72
2021/06/02 03:30:39;;;;;;;0.80;0.45;;;14.30;99.90;;;;;;4358625;32;20059;-72
2021/06/02 03:33:12;;;;;;;;;;;14.30;99.90;;;;;;4368475;32;20067;-71
2021/06/02 03:35:50;;;;;;;0.45;0.45;;;14.20;99.90;;;;;;4369246;32;19946;-71
2021/06/02 03:38:40;;;;;;;0.45;0.45;;;14.20;99.90;;;;;;4368548;32;20135;-71
2021/06/02 03:41:17;;;;;;;0.20;0.20;;;14.10;99.90;;;;;;4368236;32;20058;-71
2021/06/02 03:43:47;;;;;;;0.62;0.45;;;14.10;99.90;;;;;;4369066;32;20083;-71
2021/06/02 03:46:39;;;;;;;0.30;0.30;;;14.00;99.90;;;;;;4367466;32;20613;-71
2021/06/02 03:49:13;;;;;;;7.68;0.75;;;14.00;99.90;;;;;;4358082;32;20066;-71
2021/06/02 03:51:50;;;;;;;0.30;0.30;;;14.20;99.90;;;;;;4369830;32;20516;-71
2021/06/02 03:54:23;;;;;;;0.20;0.20;;;14.20;99.90;;;;;;4368341;32;20067;-71
2021/06/02 03:57:18;;;;;;;0.32;0.32;;;14.20;99.90;;;;;;4368303;32;20436;-71
2021/06/02 03:59:56;;;;;;;0.30;0.30;;;14.30;99.90;;;;;;4356855;32;20067;-71
2021/06/02 04:02:53;;;;;;;0.30;0.30;;;14.30;99.90;;;;;;4368214;32;20113;-71
2021/06/02 04:05:41;;;;;;;0.30;0.30;;;14.10;99.90;;;;;;4357097;32;20091;-71
2021/06/02 04:08:30;;;;;;;0.35;0.35;;;14.10;99.90;;;;;;4356993;32;20118;-71
2021/06/02 04:11:23;;;;;;;1.87;0.28;;;14.10;99.90;;;;;;4368901;32;20565;-71
2021/06/02 04:13:54;;;;;;;0.30;0.30;;;14.10;99.90;;;;;;4369395;32;20066;-71
2021/06/02 04:16:23;;;;;;;0.98;0.57;;;14.20;99.90;;;;;;4382453;32;20062;-71
2021/06/02 04:18:51;;;;;;;0.40;0.40;;;14.30;99.90;;;;;;4383415;32;20058;-71
2021/06/02 04:21:19;;;;;;;4.03;1.20;;;14.20;99.90;;;;;;4375810;32;20616;-71
2021/06/02 04:23:46;;;;;;;0.75;0.50;;;14.10;99.90;;;;;;4373220;32;20527;-71
2021/06/02 04:26:12;;;;;;;0.30;0.30;;;14.00;99.90;;;;;;4365694;32;20118;-71
2021/06/02 04:28:38;;;;;;;0.30;0.30;;;13.90;99.90;;;;;;4387039;32;20063;-71
2021/06/02 04:31:06;;;;;;;0.30;0.30;;;14.00;99.90;;;;;;4398009;32;20057;-71
2021/06/02 04:33:33;;;;;;;0.28;0.28;;;14.00;99.90;;;;;;4398133;32;20123;-71
2021/06/02 04:36:00;;;;;;;0.37;0.37;;;14.10;99.90;;;;;;4396865;32;20070;-71
2021/06/02 04:38:26;;;;;;;0.30;0.30;;;14.20;99.90;;;;;;4397022;32;20130;-71
2021/06/02 04:40:53;;;;;;;0.47;0.47;;;14.10;99.90;;;;;;4387626;32;20159;-71
2021/06/02 04:43:19;;;;;;;0.20;0.20;;;14.20;99.90;;;;;;4383239;32;20141;-71
2021/06/02 04:45:56;;;;;;;1.62;0.77;;;14.10;99.90;;;;;;4381924;32;20095;-71
2021/06/02 04:48:22;;;;;;;0.35;0.35;;;14.20;99.90;;;;;;4382944;32;20062;-71
2021/06/02 04:51:10;;;;;;;1.25;0.70;;;14.20;99.90;;;;;;4382780;32;20086;-72
2021/06/02 04:53:57;;;;;;;5.28;1.10;;;14.20;99.90;;;;;;4380748;32;20078;-71
2021/06/02 04:56:57;;;;;;;1.35;0.98;;;14.30;99.90;;;;;;4371060;32;20584;-71
2021/06/02 05:00:03;;;;;;;0.75;0.75;;;14.20;99.90;;;;;;4373672;32;20895;-72
2021/06/02 05:03:02;;;;;;;0.57;0.57;;;14.20;99.90;;;;;;4350128;32;20590;-72
2021/06/02 05:05:49;;;;;;;0.70;0.57;;;14.20;99.90;;;;;;4364237;32;20071;-72
2021/06/02 05:08:36;;;;;;;0.30;0.30;;;14.20;99.90;;;;;;4371040;32;20519;-73
2021/06/02 05:11:21;;;;;;;0.40;0.40;;;14.20;99.90;;;;;;4365877;32;20066;-71
2021/06/02 05:14:26;;;;;;;4.75;0.57;;;14.20;99.90;;;;;;4381922;32;20110;-71
2021/06/02 05:17:31;;;;;;;2.72;0.40;;;14.30;99.90;;;;;;4363685;32;21939;-73
2021/06/02 05:20:24;;;;;;;0.35;0.30;;;14.40;99.90;;;;;;4368508;32;20864;-72
2021/06/02 05:23:25;;;;;;;0.20;0.20;;;14.50;99.90;;;;;;4382600;32;20392;-72
2021/06/02 05:26:04;;;;;;;;;;;14.40;99.90;;;;;;4369872;32;20074;-72
2021/06/02 05:28:51;;;;;;;0.47;0.40;;;14.40;99.90;;;;;;4366145;32;20016;-72
2021/06/02 05:31:45;;;;;;;0.30;0.30;;;14.40;99.90;;;;;;4360047;32;20078;-72
2021/06/02 05:34:14;;;;;;;0.30;0.30;;;14.50;99.90;;;;;;4370539;32;20063;-72
2021/06/02 05:37:02;;;;;;;0.65;0.65;;;14.60;99.90;;;;;;4384011;32;20386;-72
2021/06/02 05:40:02;;;;;;;0.32;0.32;;;14.60;99.90;;;;;;4374139;32;20079;-72
2021/06/02 05:43:00;;;;;;;0.47;0.47;;;14.60;99.90;;;;;;4379476;32;20054;-72
2021/06/02 05:45:59;;;;;;;3.87;1.15;;;14.80;99.90;;;;;;4362511;32;20063;-73
2021/06/02 05:48:55;;;;;;;1.17;0.88;;;14.70;99.90;;;;;;4369525;32;20086;-72
2021/06/02 05:51:41;;;;;;;2.22;1.50;;;14.70;99.90;;;;;;4381577;32;20583;-72
2021/06/02 05:54:29;;;;;;;0.35;0.30;;;14.80;99.90;;;;;;4379844;32;20054;-72
2021/06/02 05:57:27;;;;;;;5.22;1.30;;;14.80;99.90;;;;;;4378500;32;20094;-72
2021/06/02 06:00:08;;;;;;;4.45;0.40;;;14.90;99.90;;;;;;4368048;32;20123;-73
2021/06/02 06:03:13;;;;;;;0.28;0.28;;;15.00;99.90;;;;;;4372225;32;20106;-73
2021/06/02 06:06:00;;;;;;;0.35;0.35;;;15.00;99.90;;;;;;4354454;32;20071;-73
2021/06/02 06:09:02;;;;;;;0.20;0.20;;;14.90;99.90;;;;;;4373702;32;20078;-72
2021/06/02 06:12:08;;;;;;;3.08;0.73;;;15.10;99.90;;;;;;4367556;32;20076;-73
2021/06/02 06:15:03;;;;;;;0.32;0.32;;;15.20;99.90;;;;;;4360380;32;20079;-72
2021/06/02 06:17:49;;;;;;;1.60;0.82;;;15.30;99.90;;;;;;4371158;32;20560;-72
2021/06/02 06:20:47;;;;;;;1.05;0.98;;;15.40;99.90;;;;;;4376268;32;20091;-72
2021/06/02 06:23:36;;;;;;;0.30;0.30;;;15.50;99.90;;;;;;4374795;32;20071;-72
2021/06/02 06:26:14;;;;;;;0.40;0.40;;;15.50;99.90;;;;;;4364288;32;20067;-72
2021/06/02 06:28:51;;;;;;;0.70;0.65;;;15.60;99.90;;;;;;4375431;32;20426;-72
2021/06/02 06:31:21;;;;;;;0.60;0.60;;;15.70;99.90;;;;;;4380685;32;20093;-72
2021/06/02 06:33:49;;;;;;;1.02;0.60;;;15.80;99.90;;;;;;4379129;32;20117;-72
2021/06/02 06:36:19;;;;;;;0.50;0.50;;;15.90;99.90;;;;;;4374612;32;20078;-72
2021/06/02 06:39:01;;;;;;;1.15;0.80;;;16.00;99.90;;;;;;4378529;32;20580;-73
2021/06/02 06:41:30;;;;;;;1.77;0.65;;;16.10;99.90;;;;;;4375509;32;20118;-72
2021/06/02 06:43:57;;;;;;;0.30;0.30;;;16.20;99.90;;;;;;4378697;32;20058;-72
2021/06/02 06:46:24;;;;;;;0.30;0.30;;;16.40;99.90;;;;;;4374853;32;20654;-73
2021/06/02 06:48:52;;;;;;;0.68;0.68;;;16.50;99.90;;;;;;4378368;32;20054;-73
2021/06/02 06:51:20;;;;;;;0.80;0.43;;;16.70;99.90;;;;;;4381550;32;20158;-72
2021/06/02 06:53:48;;;;;;;0.37;0.37;;;16.90;99.90;;;;;;4376579;32;20082;-73
2021/06/02 06:56:15;;;;;;;0.40;0.32;;;17.00;99.90;;;;;;4376737;32;20098;-73
2021/06/02 06:58:42;;;;;;;0.20;0.20;;;17.20;99.90;;;;;;4380303;32;20095;-72
2021/06/02 07:01:07;;;;;;;0.52;0.52;;;17.30;99.90;;;;;;4374243;32;20070;-72
2021/06/02 07:03:33;;;;;;;0.47;0.47;;;17.30;99.90;;;;;;4378451;32;20078;-72
2021/06/02 07:06:02;;;;;;;0.40;0.40;;;17.40;99.90;;;;;;4382040;32;20078;-73
2021/06/02 07:08:30;;;;;;;3.58;1.00;;;17.40;99.90;;;;;;4377989;32;20070;-72
2021/06/02 07:10:59;;;;;;;0.52;0.52;;;17.50;99.90;;;;;;4377156;32;20117;-73
2021/06/02 07:13:25;;;;;;;0.50;0.50;;;17.60;99.90;;;;;;4389440;32;20087;-73
2021/06/02 07:15:51;;;;;;;1.25;0.50;;;17.80;99.90;;;;;;4380553;32;20071;-73
2021/06/02 07:18:19;;;;;;;0.30;0.30;;;18.00;99.90;;;;;;4380940;32;20070;-73
2021/06/02 07:20:47;;;;;;;0.20;0.20;;;18.00;99.90;;;;;;4382220;32;20062;-73
2021/06/02 07:23:13;;;;;;;0.68;0.68;;;18.00;99.90;;;;;;4381559;32;20095;-72
2021/06/02 07:25:39;;;;;;;0.50;0.50;;;18.20;99.90;;;;;;4381437;32;20163;-73
2021/06/02 07:28:09;;;;;;;0.30;0.30;;;18.30;99.90;;;;;;4381074;32;20123;-72
2021/06/02 07:30:38;;;;;;;0.65;0.60;;;18.40;99.90;;;;;;4380152;32;20095;-72
2021/06/02 07:33:04;;;;;;;0.73;0.43;;;18.50;99.90;;;;;;4385642;32;20077;-73
2021/06/02 07:35:31;;;;;;;1.40;0.65;;;18.50;99.90;;;;;;4377000;32;20328;-73
2021/06/02 07:37:56;;;;;;;11.68;0.43;;;18.50;99.90;;;;;;4380651;32;20394;-74
2021/06/02 07:40:23;;;;;;;1.12;0.62;;;18.70;99.90;;;;;;4379425;32;20138;-74
2021/06/02 07:42:49;;;;;;;0.45;0.45;;;18.90;99.90;;;;;;4374386;32;20087;-74
2021/06/02 07:45:16;;;;;;;0.40;0.40;;;19.00;99.90;;;;;;4372994;32;20136;-74
2021/06/02 07:47:41;;;;;;;3.12;1.12;;;19.20;99.90;;;;;;4382471;32;20490;-74
2021/06/02 07:50:08;;;;;;;0.77;0.60;;;19.30;99.90;;;;;;4378691;32;20434;-74
2021/06/02 07:52:33;;;;;;;2.20;0.55;;;19.50;99.90;;;;;;4382766;32;20126;-74
2021/06/02 07:54:59;;;;;;;0.30;0.30;;;19.50;99.90;;;;;;4377179;32;20512;-74
2021/06/02 07:57:24;;;;;;;0.40;0.40;;;19.50;99.90;;;;;;4381489;32;20488;-73
2021/06/02 07:59:50;;;;;;;0.22;0.22;;;19.70;99.90;;;;;;4378931;32;20078;-72
2021/06/02 08:02:15;;;;;;;0.30;0.30;;;19.70;99.90;;;;;;4378994;32;20409;-72
2021/06/02 08:04:42;;;;;;;0.20;0.20;;;19.60;99.90;;;;;;4379377;32;20091;-72
2021/06/02 08:07:08;;;;;;;0.90;0.50;;;19.60;99.90;;;;;;4382332;32;20093;-72
2021/06/02 08:09:35;;;;;;;0.32;0.32;;;19.60;99.90;;;;;;4371522;32;20489;-72
2021/06/02 08:12:00;;;;;;;0.47;0.47;;;19.70;99.90;;;;;;4380939;32;20082;-72
2021/06/02 08:14:26;;;;;;;0.28;0.28;;;20.00;99.90;;;;;;4378250;32;20083;-72
2021/06/02 08:16:51;;;;;;;4.87;1.10;;;20.10;99.90;;;;;;4375464;32;20114;-72
2021/06/02 08:19:17;;;;;;;0.22;0.22;;;20.10;99.90;;;;;;4380462;32;20133;-72
2021/06/02 08:21:42;;;;;;;0.30;0.30;;;20.40;99.90;;;;;;4383868;32;20070;-72
2021/06/02 08:24:08;;;;;;;0.30;0.30;;;20.40;99.90;;;;;;4379787;32;20476;-72
2021/06/02 08:26:38;;;;;;;0.32;0.32;;;20.40;99.90;;;;;;4380227;32;20122;-72
2021/06/02 08:29:05;;;;;;;0.40;0.40;;;20.40;99.90;;;;;;4380807;32;20122;-73
2021/06/02 08:31:31;;;;;;;0.40;0.40;;;20.40;99.90;;;;;;4380311;32;20050;-73
2021/06/02 08:33:58;;;;;;;2.03;0.45;;;20.50;99.90;;;;;;4379643;32;20075;-73
2021/06/02 08:36:24;;;;;;;0.68;0.68;;;20.60;99.90;;;;;;4378098;32;20485;-73
2021/06/02 08:38:49;;;;;;;0.40;0.40;;;20.70;99.90;;;;;;4378615;32;20103;-73
2021/06/02 08:41:15;;;;;;;3.75;0.98;;;20.70;99.90;;;;;;4377052;32;20062;-73
2021/06/02 08:43:42;;;;;;;0.40;0.40;;;20.80;99.90;;;;;;4378929;32;20106;-73
2021/06/02 08:46:08;;;;;;;0.95;0.70;;;20.80;99.90;;;;;;4376478;32;20090;-72
2021/06/02 08:48:35;;;;;;;0.82;0.30;;;21.00;99.90;;;;;;4381984;32;20117;-73
2021/06/02 08:51:02;;;;;;;0.40;0.40;;;21.20;99.90;;;;;;4380176;32;20128;-73
2021/06/02 08:53:27;;;;;;;0.30;0.30;;;21.20;99.90;;;;;;4382449;32;20140;-73
2021/06/02 08:55:53;;;;;;;2.05;1.23;;;21.20;99.90;;;;;;4377533;32;20066;-73
2021/06/02 08:58:20;;;;;;;0.75;0.73;;;21.40;99.90;;;;;;4389227;32;20065;-73
2021/06/02 09:00:46;;;;;;;0.57;0.57;;;21.50;99.90;;;;;;4380248;32;20079;-73
2021/06/02 09:03:11;;;;;;;0.35;0.35;;;21.50;99.90;;;;;;4384137;32;20378;-73
2021/06/02 09:05:37;;;;;;;0.70;0.37;;;21.60;99.90;;;;;;4382084;32;20082;-73
2021/06/02 09:08:04;;;;;;;0.32;0.32;;;21.80;99.90;;;;;;4376075;32;20099;-73
2021/06/02 09:10:38;;;;;;;1.62;0.28;;;21.80;99.90;;;;;;4380495;32;20087;-73
2021/06/02 09:13:03;;;;;;;0.45;0.43;;;21.90;99.90;;;;;;4382771;32;20156;-73
2021/06/02 09:15:34;;;;;;;10.60;0.60;;;21.90;99.90;;;;;;4381374;32;20174;-73
2021/06/02 09:18:04;;;;;;;0.50;0.50;;;22.00;99.90;;;;;;4378947;32;20258;-72
2021/06/02 09:20:42;;;;;;;0.40;0.40;;;22.10;99.90;;;;;;4374675;32;20564;-72
2021/06/02 09:23:29;;;;;;;0.73;0.68;;;22.20;99.90;;;;;;4380319;32;20062;-72
2021/06/02 09:26:15;;;;;;;4.37;0.70;;;22.30;99.90;;;;;;4362567;32;20070;-72
2021/06/02 09:28:54;;;;;;;0.90;0.73;;;22.50;99.90;;;;;;4379338;32;20078;-73
2021/06/02 09:31:21;;;;;;;0.57;0.57;;;22.60;99.90;;;;;;4383021;32;20531;-73
2021/06/02 09:33:47;;;;;;;0.95;0.47;;;22.60;99.90;;;;;;4382016;32;20082;-73
2021/06/02 09:36:14;;;;;;;2.47;1.05;;;22.50;99.90;;;;;;4376979;32;20122;-73
2021/06/02 09:38:42;;;;;;;3.45;0.50;;;22.50;99.60;;;;;;4381340;32;20496;-73
2021/06/02 09:41:13;;;;;;;0.98;0.32;;;22.60;99.40;;;;;;4378679;32;121208;-74
2021/06/02 09:43:38;;;;;;;4.20;0.98;;;22.80;99.00;;;;;;4380306;32;20129;-74
2021/06/02 09:46:07;;;;;;;0.35;0.35;;;22.80;98.60;;;;;;4380549;32;20129;-74
2021/06/02 09:48:39;;;;;;;1.75;0.60;;;22.80;98.50;;;;;;4386288;32;20086;-74
2021/06/02 09:51:05;;;;;;;2.90;1.15;;;22.90;98.40;;;;;;4379562;32;20500;-74
2021/06/02 09:53:31;;;;;;;3.05;1.45;;;23.10;98.00;;;;;;4381263;32;20063;-73
2021/06/02 09:55:56;;;;;;;0.20;0.20;;;23.20;97.30;;;;;;4380941;32;20062;-74
2021/06/02 09:58:22;;;;;;;0.40;0.40;;;23.20;97.60;;;;;;4383105;32;20381;-71
2021/06/02 10:00:58;;;;;;;0.55;0.40;;;23.50;98.50;;;;;;4381470;32;20074;-72
2021/06/02 10:03:29;;;;;;;0.65;0.60;;;23.80;96.30;;;;;;4383639;32;20078;-72
2021/06/02 10:05:55;;;;;;;0.40;0.40;;;24.00;96.20;;;;;;4386678;32;20078;-73
2021/06/02 10:08:37;;;;;;;0.17;0.17;;;24.00;95.50;;;;;;4381985;32;20126;-72
2021/06/02 10:11:13;;;;;;;0.40;0.40;;;24.30;95.40;;;;;;4385503;32;20091;-72
2021/06/02 10:13:39;;;;;;;0.30;0.30;;;24.40;95.00;;;;;;4383392;32;20070;-73
2021/06/02 10:16:05;;;;;;;0.20;0.20;;;24.60;94.10;;;;;;4380503;32;20103;-73
2021/06/02 10:18:33;;;;;;;0.20;0.20;;;24.90;93.90;;;;;;4387425;32;20074;-74
2021/06/02 10:21:06;;;;;;;0.40;0.40;;;24.90;93.50;;;;;;4370732;32;20821;-73
2021/06/02 10:23:35;;;;;;;0.47;0.47;;;25.10;92.70;;;;;;4380492;32;20139;-74
2021/06/02 10:26:03;;;;;;;0.30;0.30;;;24.60;91.60;;;;;;4377703;32;20078;-74
2021/06/02 10:28:30;;;;;;;0.37;0.37;;;24.70;91.60;;;;;;4380967;32;20089;-74
2021/06/02 10:30:57;;;;;;;2.35;0.62;;;24.70;93.10;;;;;;4378895;32;20059;-74
2021/06/02 10:33:22;;;;;;;0.62;0.50;;;25.10;91.90;;;;;;4377228;32;20098;-74
2021/06/02 10:35:48;;;;;;;0.20;0.20;;;25.40;91.30;;;;;;4400287;27;20669;-74
2021/06/02 10:38:14;;;;;;;0.55;0.55;;;25.70;91.70;;;;;;4735018;26;20089;-63
2021/06/02 10:40:43;;;;;;;0.20;0.20;;;25.80;89.70;;;;;;4416818;32;20129;-65
2021/06/02 10:43:15;;;;;;;0.80;0.65;;;25.90;90.00;;;;;;4403742;32;20182;-66
2021/06/02 10:45:47;;;;;;;0.47;0.47;;;26.30;89.80;;;;;;4397716;32;20086;-66
2021/06/02 10:48:13;;;;;;;0.30;0.22;;;26.00;87.90;;;;;;4401216;32;20626;-64
2021/06/02 10:50:41;;;;;;;0.30;0.30;;;26.20;88.70;;;;;;4407267;32;20070;-64
2021/06/02 10:53:25;;;;;;;0.80;0.37;;;26.40;86.60;;;;;;4399020;32;20090;-64
2021/06/02 10:55:56;;;;;;;0.20;0.20;;;26.60;85.30;;;;;;4404870;32;20077;-65
2021/06/02 10:58:28;;;;;;;0.30;0.30;;;26.70;86.70;;;;;;4398850;32;20082;-65
2021/06/02 11:01:16;;;;;;;0.40;0.40;;;27.00;84.70;;;;;;4411299;32;20074;-64
2021/06/02 11:03:44;;;;;;;0.28;0.28;;;27.20;84.50;;;;;;4406866;32;20081;-65
2021/06/02 11:06:19;;;;;;;0.20;0.20;;;27.10;79.30;;;;;;4418570;32;20186;-64
2021/06/02 11:08:51;;;;;;;0.65;0.35;;;27.20;82.70;;;;;;4423274;32;20486;-64
2021/06/02 11:11:37;;;;;;;0.20;0.20;;;27.50;79.00;;;;;;4416154;32;20106;-65
2021/06/02 11:14:20;;;;;;;0.55;0.47;;;27.70;77.70;;;;;;4400604;32;20077;-64
2021/06/02 11:17:10;;;;;;;0.15;0.15;;;27.50;79.20;;;;;;4416557;32;20436;-64
2021/06/02 11:19:41;;;;;;;0.28;0.28;;;27.20;77.80;;;;;;4399748;32;20073;-65
2021/06/02 11:22:08;;;;;;;0.30;0.30;;;27.60;81.00;;;;;;4411161;32;20163;-64
2021/06/02 11:24:37;;;;;;;2.70;0.43;;;27.90;77.10;;;;;;4406951;32;20082;-65
2021/06/02 11:27:20;;;;;;;0.20;0.20;;;28.20;75.80;;;;;;4400329;32;20133;-64
2021/06/02 11:29:51;;;;;;;1.20;0.57;;;28.70;73.70;;;;;;4411742;32;20306;-64
2021/06/02 11:32:19;;;;;;;0.17;0.17;;;28.20;71.60;;;;;;4418369;32;20429;-64
2021/06/02 11:34:46;;;;;;;0.15;0.15;;;27.40;74.80;;;;;;4401365;32;20062;-64
2021/06/02 11:37:15;;;;;;;0.10;0.10;;;27.00;75.10;;;;;;4421438;32;20100;-64
2021/06/02 11:39:43;;;;;;;0.20;0.20;;;26.60;78.20;;;;;;4402575;32;20108;-65
2021/06/02 11:42:26;;;;;;;3.67;0.47;;;26.40;77.40;;;;;;4397414;32;20411;-66
2021/06/02 11:44:58;;;;;;;18.62;0.93;;;26.20;78.90;;;;;;4402587;32;20105;-65
2021/06/02 11:47:23;;;;;;;0.32;0.32;;;26.80;79.30;;;;;;4417216;32;20129;-63
2021/06/02 11:49:49;;;;;;;0.20;0.20;;;27.70;73.40;;;;;;4415441;32;20066;-64
2021/06/02 11:52:17;;;;;;;1.08;0.52;;;28.30;73.30;;;;;;4415052;32;20129;-63
2021/06/02 11:54:52;;;;;;;0.13;0.03;;;28.90;71.90;;;;;;4400969;32;20069;-62
2021/06/02 11:57:22;;;;;;;0.10;0.10;;;29.40;68.60;;;;;;4402746;32;20086;-63
2021/06/02 11:59:48;;;;;;;0.10;0.10;;;29.00;68.50;;;;;;4420662;32;20086;-63
2021/06/02 12:02:14;;;;;;;0.82;0.77;;;28.10;69.70;;;;;;4417131;32;20070;-63
2021/06/02 12:04:39;;;;;;;0.15;0.15;;;27.50;70.40;;;;;;4412983;32;20515;-63
2021/06/02 12:07:23;;;;;;;0.40;0.40;;;27.10;70.30;;;;;;4426041;32;20065;-63
2021/06/02 12:09:51;;;;;;;0.20;0.20;;;26.80;71.70;;;;;;4404976;32;20073;-62
2021/06/02 12:12:16;;;;;;;0.40;0.40;;;26.20;75.10;;;;;;4399757;32;20123;-62
2021/06/02 12:14:42;;;;;;;0.20;0.20;;;25.90;74.70;;;;;;4398077;32;20077;-62
2021/06/02 12:17:08;;;;;;;0.88;0.55;;;25.60;74.60;;;;;;4427872;32;20077;-62
2021/06/02 12:19:35;;;;;;;0.30;0.30;;;25.60;75.10;;;;;;4421274;32;20491;-62
2021/06/02 12:22:20;;;;;;;0.30;0.30;;;25.70;76.10;;;;;;4393553;32;20090;-62
2021/06/02 12:25:01;;;;;;;0.50;0.40;;;25.50;76.90;;;;;;4401527;32;20085;-61
2021/06/02 12:27:27;;;;;;;1.27;0.68;;;25.40;77.70;;;;;;4418103;32;20185;-62
2021/06/02 12:30:05;;;;;;;0.25;0.25;;;25.10;77.30;;;;;;4422264;32;20061;-63
2021/06/02 12:32:43;;;;;;;1.15;0.52;;;25.00;76.60;;;;;;4406501;32;20082;-61
2021/06/02 12:35:28;;;;;;;0.20;0.20;;;25.00;77.30;;;;;;4421084;32;20082;-62
2021/06/02 12:38:16;;;;;;;0.40;0.40;;;25.20;77.50;;;;;;4418222;32;20132;-62
2021/06/02 12:40:46;;;;;;;0.20;0.20;;;26.40;75.80;;;;;;4403108;32;20566;-62
2021/06/02 12:43:37;;;;;;;0.10;0.10;;;27.20;73.60;;;;;;4408990;32;20330;-62
2021/06/02 12:46:18;;;;;;;0.20;0.20;;;28.30;72.00;;;;;;4397808;32;20561;-62
2021/06/02 12:48:44;;;;;;;0.25;0.20;;;29.50;70.00;;;;;;4418618;32;20078;-61
2021/06/02 12:51:14;;;;;;;0.77;0.30;;;30.40;67.50;;;;;;4403426;32;20460;-62
2021/06/02 12:53:42;;;;;;;0.65;0.45;;;30.80;64.40;;;;;;4409242;32;20069;-63
2021/06/02 12:56:09;;;;;;;0.13;0.13;;;30.80;66.00;;;;;;4411251;32;20078;-64
2021/06/02 12:58:35;;;;;;;0.03;0.03;;;30.30;60.60;;;;;;4423317;32;20110;-64
2021/06/02 13:01:05;;;;;;;0.43;0.20;;;29.00;62.20;;;;;;4397580;32;20378;-62
2021/06/02 13:03:32;;;;;;;0.28;0.28;;;28.30;62.80;;;;;;4411102;32;20092;-64
2021/06/02 13:05:58;;;;;;;0.10;0.10;;;28.90;65.20;;;;;;4415116;32;20671;-63
2021/06/02 13:08:23;;;;;;;0.93;0.40;;;29.70;62.80;;;;;;4413162;32;20070;-64
2021/06/02 13:10:49;;;;;;;0.50;0.40;;;29.80;60.40;;;;;;4410532;32;20073;-64
2021/06/02 13:13:16;;;;;;;0.00;0.00;;;29.80;59.30;;;;;;4406001;32;20082;-65
2021/06/02 13:15:45;;;;;;;24.12;6.82;;;29.10;59.50;;;;;;4412263;32;20069;-63
2021/06/02 13:18:28;;;;;;;0.80;0.68;;;28.30;61.90;;;;;;4421249;32;20065;-62
2021/06/02 13:20:55;;;;;;;0.10;0.10;;;27.70;62.10;;;;;;4426987;32;20506;-62
2021/06/02 13:23:26;;;;;;;0.25;0.25;;;27.30;63.80;;;;;;4413697;32;20361;-64
2021/06/02 13:26:01;;;;;;;0.03;0.03;;;27.00;64.80;;;;;;4406527;32;20062;-64